Saint Petersburg, Florida
Current Conditions -  °F | °C
As of 4:53 PM on Tuesday 21 Oct 2014 (Local Time) from KSPG Reporting Station
Clear Clear  
Wind Chill: 28°   Ceiling: Unl
Heat Index: 29°   Visibility: 10mi
Dew Point: 18°   Wind: 6mph
Humidity: 54%   Direction: 40°NE
Pressure: 29.9"   Gusts: NA
Location:  27.77°N, 82.63°W
Report Text: KSPG 212053Z AUTO 04005KT 10SM CLR 28/18 A2990 RMK AO2 SLP123 T02780178 56008
Loading
Personal Weather Stations






























Interactive Weather Map
Tropical Storm Tracking
New forecast layout! Learn more

10-Day Weather Forecast

Advertisements
Track Severe Weather on mobile